createdAt,value
2017-11-23T00:00:21.940Z,0
2017-11-23T00:01:23.548Z,0
2017-11-23T00:02:25.150Z,0
2017-11-23T00:03:28.480Z,0
2017-11-23T00:04:31.765Z,0
2017-11-23T00:05:34.608Z,0
2017-11-23T00:06:37.474Z,0
2017-11-23T00:07:39.497Z,0
2017-11-23T00:08:41.448Z,0
2017-11-23T00:09:43.684Z,0
2017-11-23T00:10:46.005Z,0
2017-11-23T00:11:49.693Z,0
2017-11-23T00:12:51.466Z,0
2017-11-23T00:13:54.257Z,0
2017-11-23T00:14:55.873Z,0
2017-11-23T00:15:57.473Z,0
2017-11-23T00:17:00.720Z,0
2017-11-23T00:18:03.466Z,0
2017-11-23T00:19:05.277Z,0
2017-11-23T00:20:07.749Z,0
2017-11-23T00:21:09.362Z,0
2017-11-23T00:22:10.964Z,0
2017-11-23T00:23:12.570Z,0
2017-11-23T00:24:15.760Z,0
2017-11-23T00:25:20.045Z,0
2017-11-23T00:26:23.057Z,0
2017-11-23T00:27:26.472Z,0
2017-11-23T00:28:29.414Z,0
2017-11-23T00:29:31.297Z,0
2017-11-23T00:30:33.043Z,0
2017-11-23T00:31:34.727Z,0
2017-11-23T00:32:37.008Z,0
2017-11-23T00:33:39.907Z,0
2017-11-23T00:34:42.267Z,0
2017-11-23T00:35:44.858Z,0
2017-11-23T00:36:48.810Z,0
2017-11-23T00:37:51.957Z,0
2017-11-23T00:38:54.519Z,0
2017-11-23T00:39:57.039Z,0
2017-11-23T00:40:58.660Z,0
2017-11-23T00:42:00.267Z,0
2017-11-23T00:43:01.876Z,0
2017-11-23T00:44:03.480Z,0
2017-11-23T00:45:05.088Z,0
2017-11-23T00:46:06.690Z,0
2017-11-23T00:47:08.298Z,0
2017-11-23T00:48:09.905Z,0
2017-11-23T00:49:11.509Z,0
2017-11-23T00:50:13.116Z,0
2017-11-23T00:51:14.725Z,0
2017-11-23T00:52:16.333Z,0
2017-11-23T00:53:17.933Z,0
2017-11-23T00:54:19.546Z,0
2017-11-23T00:55:21.146Z,0
2017-11-23T00:56:22.751Z,0
2017-11-23T00:57:24.358Z,0
2017-11-23T00:58:25.969Z,0
2017-11-23T00:59:27.572Z,0
2017-11-23T01:00:29.179Z,0
2017-11-23T01:01:30.783Z,0
2017-11-23T01:02:32.393Z,0
2017-11-23T01:03:33.997Z,0
2017-11-23T01:04:35.609Z,0
2017-11-23T01:05:37.218Z,0
2017-11-23T01:06:38.826Z,0
2017-11-23T01:07:40.427Z,0
2017-11-23T01:08:42.046Z,0
2017-11-23T01:09:43.651Z,0
2017-11-23T01:10:45.253Z,0
2017-11-23T01:11:46.860Z,0
2017-11-23T01:12:48.468Z,0
2017-11-23T01:13:50.077Z,0
2017-11-23T01:14:51.677Z,0
2017-11-23T01:15:53.279Z,0
2017-11-23T01:16:54.893Z,0
2017-11-23T01:17:56.498Z,0
2017-11-23T01:18:58.104Z,0
2017-11-23T01:19:59.709Z,0
2017-11-23T01:21:01.319Z,0
2017-11-23T01:22:02.922Z,0
2017-11-23T01:23:04.527Z,0
2017-11-23T01:24:06.137Z,0
2017-11-23T01:25:07.747Z,0
2017-11-23T01:26:09.348Z,0
2017-11-23T01:27:10.960Z,0
2017-11-23T01:28:12.563Z,0
2017-11-23T01:29:14.171Z,0
2017-11-23T01:30:15.772Z,0
2017-11-23T01:31:17.379Z,0
2017-11-23T01:32:18.992Z,0
2017-11-23T01:33:20.596Z,0
2017-11-23T01:34:22.204Z,0
2017-11-23T01:35:23.810Z,0
2017-11-23T01:36:25.426Z,0
2017-11-23T01:37:27.019Z,0
2017-11-23T01:38:28.632Z,0
2017-11-23T01:39:30.234Z,0
2017-11-23T01:40:31.841Z,0
2017-11-23T01:41:33.448Z,0
2017-11-23T01:42:35.050Z,0
2017-11-23T01:43:36.653Z,0
2017-11-23T01:44:38.262Z,0
2017-11-23T01:45:39.865Z,0
2017-11-23T01:46:41.477Z,0
2017-11-23T01:47:43.082Z,0
2017-11-23T01:48:44.694Z,0
2017-11-23T01:49:46.295Z,0
2017-11-23T01:50:47.905Z,0
2017-11-23T01:51:49.508Z,0
2017-11-23T01:52:51.119Z,0
2017-11-23T01:53:52.720Z,0
2017-11-23T01:54:54.326Z,0
2017-11-23T01:55:55.932Z,0
2017-11-23T01:56:57.542Z,0
2017-11-23T01:57:59.148Z,0
2017-11-23T01:59:00.752Z,0
2017-11-23T02:00:02.375Z,0
2017-11-23T02:01:03.973Z,0
2017-11-23T02:02:05.583Z,0
2017-11-23T02:03:07.186Z,0
2017-11-23T02:04:08.796Z,0
2017-11-23T02:05:10.396Z,0
2017-11-23T02:06:12.006Z,0
2017-11-23T02:07:13.610Z,0
2017-11-23T02:08:15.221Z,0
2017-11-23T02:09:17.684Z,0
2017-11-23T02:10:19.295Z,0
2017-11-23T02:11:20.896Z,0
2017-11-23T02:12:22.501Z,0
2017-11-23T02:13:24.111Z,0
2017-11-23T02:14:25.713Z,0
2017-11-23T02:15:27.323Z,0
2017-11-23T02:16:28.933Z,0
2017-11-23T02:17:30.540Z,0
2017-11-23T02:18:32.145Z,0
2017-11-23T02:19:33.752Z,0
2017-11-23T02:20:35.354Z,0
2017-11-23T02:21:39.664Z,0
2017-11-23T02:22:41.270Z,0
2017-11-23T02:23:42.877Z,0
2017-11-23T02:24:44.489Z,0
2017-11-23T02:25:46.097Z,0
2017-11-23T02:26:47.698Z,0
2017-11-23T02:27:49.305Z,0
2017-11-23T02:28:50.913Z,0
2017-11-23T02:29:52.517Z,0
2017-11-23T02:30:54.138Z,0
2017-11-23T02:31:55.730Z,0
2017-11-23T02:32:57.338Z,0
2017-11-23T02:33:58.949Z,0
2017-11-23T02:35:00.550Z,0
2017-11-23T02:36:02.167Z,0
2017-11-23T02:37:03.768Z,0
2017-11-23T02:38:05.375Z,0
2017-11-23T02:39:06.987Z,0
2017-11-23T02:40:08.594Z,0
2017-11-23T02:41:10.196Z,0
2017-11-23T02:42:11.798Z,0
2017-11-23T02:43:13.411Z,0
2017-11-23T02:44:15.015Z,0
2017-11-23T02:45:16.638Z,0
2017-11-23T02:46:18.237Z,0
2017-11-23T02:47:19.839Z,0
2017-11-23T02:48:21.443Z,0
2017-11-23T02:49:23.053Z,0
2017-11-23T02:50:24.657Z,0
2017-11-23T02:51:26.266Z,0
2017-11-23T02:52:27.882Z,0
2017-11-23T02:53:29.484Z,0
2017-11-23T02:54:31.086Z,0
2017-11-23T02:55:32.695Z,0
2017-11-23T02:56:34.304Z,0
2017-11-23T02:57:35.918Z,0
2017-11-23T02:58:37.524Z,0
2017-11-23T02:59:39.133Z,0
2017-11-23T03:00:40.740Z,0
2017-11-23T03:01:42.353Z,0
2017-11-23T03:02:43.947Z,0
2017-11-23T03:03:45.560Z,0
2017-11-23T03:04:47.163Z,0
2017-11-23T03:05:48.775Z,0
2017-11-23T03:06:50.384Z,0
2017-11-23T03:07:51.987Z,0
2017-11-23T03:08:53.592Z,0
2017-11-23T03:09:55.197Z,0
2017-11-23T03:10:56.809Z,0
2017-11-23T03:11:58.417Z,0
2017-11-23T03:13:00.018Z,0
2017-11-23T03:14:01.632Z,0
2017-11-23T03:15:03.240Z,0
2017-11-23T03:16:04.849Z,0
2017-11-23T03:17:06.457Z,0
2017-11-23T03:18:08.066Z,0
2017-11-23T03:19:09.675Z,0
2017-11-23T03:20:11.279Z,0
2017-11-23T03:21:12.892Z,0
2017-11-23T03:22:14.497Z,0
2017-11-23T03:23:16.104Z,0
2017-11-23T03:24:17.712Z,0
2017-11-23T03:25:19.321Z,0
2017-11-23T03:26:20.923Z,0
2017-11-23T03:27:22.530Z,0
2017-11-23T03:28:24.136Z,0
2017-11-23T03:29:25.742Z,0
2017-11-23T03:30:27.352Z,0
2017-11-23T03:31:28.953Z,0
2017-11-23T03:32:30.556Z,0
2017-11-23T03:33:32.162Z,0
2017-11-23T03:34:33.775Z,0
2017-11-23T03:35:35.384Z,0
2017-11-23T03:36:36.989Z,0
2017-11-23T03:37:38.592Z,0
2017-11-23T03:38:40.201Z,0
2017-11-23T03:39:41.804Z,0
2017-11-23T03:40:43.414Z,0
2017-11-23T03:41:45.019Z,0
2017-11-23T03:42:46.628Z,0
2017-11-23T03:43:48.241Z,0
2017-11-23T03:44:49.843Z,0
2017-11-23T03:45:51.452Z,0
2017-11-23T03:46:53.057Z,0
2017-11-23T03:47:54.661Z,0
2017-11-23T03:48:56.271Z,0
2017-11-23T03:49:57.878Z,0
2017-11-23T03:50:59.489Z,0
2017-11-23T03:52:01.095Z,0
2017-11-23T03:53:02.696Z,0
2017-11-23T03:54:04.304Z,0
2017-11-23T03:55:05.916Z,0
2017-11-23T03:56:07.527Z,0
2017-11-23T03:57:09.132Z,0
2017-11-23T03:58:10.741Z,0
2017-11-23T03:59:12.344Z,0
2017-11-23T04:00:13.956Z,0
2017-11-23T04:01:15.556Z,0
2017-11-23T04:02:17.165Z,0
2017-11-23T04:03:18.775Z,0
2017-11-23T04:04:20.390Z,0
2017-11-23T04:05:21.997Z,0
2017-11-23T04:06:23.597Z,0
2017-11-23T04:07:25.205Z,0
2017-11-23T04:08:26.808Z,0
2017-11-23T04:09:28.421Z,0
2017-11-23T04:10:30.024Z,0
2017-11-23T04:11:31.638Z,0
2017-11-23T04:12:33.241Z,0
2017-11-23T04:13:34.850Z,0
2017-11-23T04:14:36.452Z,0
2017-11-23T04:15:38.058Z,0
2017-11-23T04:16:39.663Z,0
2017-11-23T04:17:41.273Z,0
2017-11-23T04:18:42.880Z,0
2017-11-23T04:19:44.492Z,0
2017-11-23T04:20:46.096Z,0
2017-11-23T04:21:47.702Z,0
2017-11-23T04:22:49.314Z,0
2017-11-23T04:23:50.916Z,0
2017-11-23T04:24:52.525Z,0
2017-11-23T04:25:54.141Z,0
2017-11-23T04:26:55.756Z,0
2017-11-23T04:27:57.357Z,0
2017-11-23T04:28:58.969Z,0
2017-11-23T04:30:00.581Z,0
2017-11-23T04:31:02.196Z,0
2017-11-23T04:32:03.813Z,0
2017-11-23T04:33:05.405Z,0
2017-11-23T04:34:07.011Z,0
2017-11-23T04:35:08.621Z,0
2017-11-23T04:36:10.230Z,0
2017-11-23T04:37:11.838Z,0
2017-11-23T04:38:13.450Z,0
2017-11-23T04:39:15.052Z,0
2017-11-23T04:40:16.663Z,0
2017-11-23T04:41:18.301Z,0
2017-11-23T04:42:19.875Z,0
2017-11-23T04:43:21.485Z,0
2017-11-23T04:44:23.091Z,0
2017-11-23T04:45:24.700Z,0
2017-11-23T04:46:26.304Z,0
2017-11-23T04:47:27.927Z,0
2017-11-23T04:48:29.532Z,0
2017-11-23T04:49:31.139Z,0
2017-11-23T04:50:32.743Z,0
2017-11-23T04:51:34.352Z,0
2017-11-23T04:52:35.963Z,0
2017-11-23T04:53:37.569Z,0
2017-11-23T04:54:39.187Z,0
2017-11-23T04:55:40.790Z,0
2017-11-23T04:56:42.389Z,0
2017-11-23T04:57:43.992Z,0
2017-11-23T04:58:45.605Z,0
2017-11-23T04:59:47.214Z,0
2017-11-23T05:00:48.821Z,0
2017-11-23T05:01:50.431Z,0
2017-11-23T05:02:52.036Z,0
2017-11-23T05:03:53.637Z,0
2017-11-23T05:04:55.250Z,0
2017-11-23T05:05:56.854Z,0
2017-11-23T05:06:58.461Z,0
2017-11-23T05:08:00.065Z,0
2017-11-23T05:09:01.677Z,0
2017-11-23T05:10:03.285Z,0
2017-11-23T05:11:04.885Z,0
2017-11-23T05:12:06.490Z,0
2017-11-23T05:13:08.098Z,0
2017-11-23T05:14:09.701Z,0
2017-11-23T05:15:11.312Z,0
2017-11-23T05:16:12.917Z,0
2017-11-23T05:17:14.542Z,0
2017-11-23T05:18:16.159Z,0
2017-11-23T05:19:17.749Z,0
2017-11-23T05:20:19.361Z,0
2017-11-23T05:21:20.963Z,0
2017-11-23T05:22:22.570Z,0
2017-11-23T05:23:24.181Z,0
2017-11-23T05:24:25.792Z,0
2017-11-23T05:25:27.395Z,0
2017-11-23T05:26:29.000Z,0
2017-11-23T05:27:30.613Z,0
2017-11-23T05:28:32.215Z,0
2017-11-23T05:29:33.825Z,0
2017-11-23T05:30:35.438Z,0
2017-11-23T05:31:37.039Z,0
2017-11-23T05:32:38.659Z,0
2017-11-23T05:33:40.254Z,0
2017-11-23T05:34:41.859Z,0
2017-11-23T05:35:43.469Z,0
2017-11-23T05:36:45.075Z,0
2017-11-23T05:37:46.688Z,0
2017-11-23T05:38:48.293Z,0
2017-11-23T05:39:49.901Z,0
2017-11-23T05:40:51.508Z,0
2017-11-23T05:41:53.110Z,0
2017-11-23T05:42:54.717Z,0
2017-11-23T05:43:56.329Z,0
2017-11-23T05:44:57.931Z,0
2017-11-23T05:45:59.548Z,0
2017-11-23T05:47:01.144Z,0
2017-11-23T05:48:02.755Z,0
2017-11-23T05:49:04.363Z,0
2017-11-23T05:50:05.967Z,0
2017-11-23T05:51:07.586Z,0
2017-11-23T05:52:09.185Z,0
2017-11-23T05:53:10.796Z,0
2017-11-23T05:54:12.399Z,0
2017-11-23T05:55:14.009Z,0
2017-11-23T05:56:15.616Z,0
2017-11-23T05:57:17.230Z,0
2017-11-23T05:58:18.834Z,0
2017-11-23T05:59:20.446Z,0
2017-11-23T06:00:22.051Z,0
2017-11-23T06:01:23.661Z,0
2017-11-23T06:02:25.262Z,0
2017-11-23T06:03:26.868Z,0
2017-11-23T06:04:28.479Z,0
2017-11-23T06:05:30.087Z,0
2017-11-23T06:06:31.693Z,0
2017-11-23T06:07:33.296Z,0
2017-11-23T06:08:34.905Z,0
2017-11-23T06:09:36.513Z,0
2017-11-23T06:10:38.113Z,0
2017-11-23T06:11:39.717Z,0
2017-11-23T06:12:41.330Z,0
2017-11-23T06:13:42.941Z,0
2017-11-23T06:14:44.544Z,0
2017-11-23T06:15:46.150Z,0
2017-11-23T06:16:47.759Z,0
2017-11-23T06:17:49.363Z,0
2017-11-23T06:18:50.972Z,0
2017-11-23T06:19:52.577Z,0
2017-11-23T06:20:54.185Z,0
2017-11-23T06:21:55.790Z,0
2017-11-23T06:22:57.401Z,0
2017-11-23T06:23:59.002Z,0
2017-11-23T06:25:00.613Z,0
2017-11-23T06:26:02.218Z,0
2017-11-23T06:27:03.834Z,0
2017-11-23T06:28:05.434Z,0
2017-11-23T06:29:07.048Z,0
2017-11-23T06:30:08.650Z,0
2017-11-23T06:31:10.262Z,0
2017-11-23T06:32:11.862Z,0
2017-11-23T06:33:13.474Z,0
2017-11-23T06:34:15.081Z,0
2017-11-23T06:35:16.687Z,4
2017-11-23T06:36:18.299Z,4
2017-11-23T06:37:19.900Z,0
2017-11-23T06:38:21.509Z,4
2017-11-23T06:39:23.114Z,4
2017-11-23T06:40:24.723Z,4
2017-11-23T06:41:26.332Z,8
2017-11-23T06:42:27.944Z,4
2017-11-23T06:43:29.548Z,4
2017-11-23T06:44:31.163Z,4
2017-11-23T06:45:32.761Z,8
2017-11-23T06:46:34.371Z,8
2017-11-23T06:47:35.978Z,8
2017-11-23T06:48:37.590Z,12
2017-11-23T06:49:39.196Z,12
2017-11-23T06:50:40.817Z,16
2017-11-23T06:51:42.413Z,24
2017-11-23T06:52:44.020Z,32
2017-11-23T06:53:45.633Z,36
2017-11-23T06:54:47.246Z,40
2017-11-23T06:55:48.852Z,40
2017-11-23T06:56:50.461Z,48
2017-11-23T06:57:52.074Z,52
2017-11-23T06:58:53.685Z,56
2017-11-23T06:59:55.289Z,56
2017-11-23T07:00:56.897Z,64
2017-11-23T07:01:58.511Z,76
2017-11-23T07:03:00.122Z,76
2017-11-23T07:04:01.729Z,80
2017-11-23T07:05:03.355Z,88
2017-11-23T07:06:04.952Z,104
2017-11-23T07:07:06.574Z,124
2017-11-23T07:08:08.171Z,140
2017-11-23T07:09:09.781Z,152
2017-11-23T07:10:11.388Z,172
2017-11-23T07:11:12.998Z,180
2017-11-23T07:12:14.613Z,192
2017-11-23T07:13:16.226Z,204
2017-11-23T07:14:17.827Z,200
2017-11-23T07:15:19.441Z,192
2017-11-23T07:16:21.046Z,196
2017-11-23T07:17:22.656Z,216
2017-11-23T07:18:24.270Z,228
2017-11-23T07:19:25.886Z,212
2017-11-23T07:20:27.492Z,200
2017-11-23T07:21:29.100Z,172
2017-11-23T07:22:30.718Z,136
2017-11-23T07:23:32.331Z,140
2017-11-23T07:24:33.939Z,148
2017-11-23T07:25:35.554Z,148
2017-11-23T07:26:37.162Z,172
2017-11-23T07:27:38.774Z,204
2017-11-23T07:28:40.380Z,248
2017-11-23T07:29:41.995Z,320
2017-11-23T07:30:43.601Z,368
2017-11-23T07:31:45.212Z,416
2017-11-23T07:32:46.851Z,444
2017-11-23T07:33:48.450Z,452
2017-11-23T07:34:50.051Z,440
2017-11-23T07:35:51.656Z,436
2017-11-23T07:36:53.269Z,488
2017-11-23T07:37:54.880Z,592
2017-11-23T07:38:56.488Z,688
2017-11-23T07:39:58.104Z,748
2017-11-23T07:40:59.716Z,772
2017-11-23T07:42:01.319Z,740
2017-11-23T07:43:02.931Z,684
2017-11-23T07:44:04.539Z,612
2017-11-23T07:45:06.151Z,556
2017-11-23T07:46:07.760Z,524
2017-11-23T07:47:09.375Z,476
2017-11-23T07:48:10.989Z,448
2017-11-23T07:49:12.597Z,424
2017-11-23T07:50:14.213Z,420
2017-11-23T07:51:15.818Z,436
2017-11-23T07:52:17.434Z,456
2017-11-23T07:53:19.039Z,520
2017-11-23T07:54:20.655Z,592
2017-11-23T07:55:22.263Z,680
2017-11-23T07:56:23.872Z,788
2017-11-23T07:57:25.484Z,928
2017-11-23T07:58:27.097Z,1244
2017-11-23T07:59:28.707Z,1592
2017-11-23T08:00:30.319Z,2056
2017-11-23T08:01:31.946Z,2284
2017-11-23T08:02:33.553Z,1992
2017-11-23T08:03:35.164Z,1620
2017-11-23T08:04:36.772Z,1436
2017-11-23T08:05:38.386Z,1324
2017-11-23T08:06:39.994Z,1276
2017-11-23T08:07:41.614Z,1184
2017-11-23T08:08:43.223Z,1096
2017-11-23T08:09:44.843Z,1080
2017-11-23T08:10:46.446Z,1276
2017-11-23T08:11:48.062Z,1616
2017-11-23T08:12:49.679Z,1752
2017-11-23T08:13:51.291Z,1776
2017-11-23T08:14:52.904Z,1748
2017-11-23T08:15:54.522Z,1944
2017-11-23T08:16:56.143Z,2024
2017-11-23T08:17:57.746Z,1996
2017-11-23T08:18:59.359Z,1756
2017-11-23T08:20:00.974Z,1604
2017-11-23T08:21:02.588Z,1416
2017-11-23T08:22:04.207Z,1420
2017-11-23T08:23:05.811Z,1580
2017-11-23T08:24:07.433Z,1836
2017-11-23T08:25:09.044Z,2136
2017-11-23T08:26:10.654Z,2652
2017-11-23T08:27:12.264Z,2988
2017-11-23T08:28:13.888Z,3256
2017-11-23T08:29:15.490Z,3308
2017-11-23T08:30:17.111Z,3168
2017-11-23T08:31:18.729Z,3544
2017-11-23T08:32:20.331Z,2784
2017-11-23T08:33:21.939Z,3468
2017-11-23T08:34:23.556Z,2628
2017-11-23T08:35:25.169Z,2500
2017-11-23T08:36:26.780Z,2408
2017-11-23T08:37:28.403Z,2604
2017-11-23T08:38:30.015Z,5732
2017-11-23T08:39:31.626Z,3980
2017-11-23T08:40:33.238Z,2584
2017-11-23T08:41:34.845Z,2420
2017-11-23T08:42:36.465Z,2756
2017-11-23T08:43:38.083Z,4008
2017-11-23T08:44:39.697Z,8232
2017-11-23T08:45:41.311Z,8488
2017-11-23T08:46:42.920Z,8520
2017-11-23T08:47:44.525Z,8376
2017-11-23T08:48:46.136Z,8108
2017-11-23T08:49:47.747Z,8064
2017-11-23T08:50:49.358Z,8164
2017-11-23T08:51:50.971Z,8520
2017-11-23T08:52:52.582Z,8712
2017-11-23T08:53:54.192Z,9844
2017-11-23T08:54:55.803Z,11132
2017-11-23T08:55:57.414Z,10828
2017-11-23T08:56:59.027Z,10364
2017-11-23T08:58:00.637Z,7936
2017-11-23T08:59:02.252Z,5212
2017-11-23T09:00:03.861Z,3992
2017-11-23T09:01:05.470Z,3748
2017-11-23T09:02:07.081Z,4400
2017-11-23T09:03:08.693Z,4356
2017-11-23T09:04:10.302Z,4836
2017-11-23T09:05:11.912Z,5992
2017-11-23T09:06:13.535Z,7228
2017-11-23T09:07:15.161Z,6580
2017-11-23T09:08:16.758Z,6076
2017-11-23T09:09:18.371Z,5756
2017-11-23T09:10:19.984Z,7828
2017-11-23T09:11:21.595Z,8080
2017-11-23T09:12:23.205Z,4564
2017-11-23T09:13:24.819Z,2544
2017-11-23T09:14:26.435Z,1916
2017-11-23T09:15:28.043Z,1664
2017-11-23T09:16:29.655Z,2004
2017-11-23T09:17:31.266Z,1988
2017-11-23T09:18:32.884Z,1812
2017-11-23T09:19:34.497Z,1820
2017-11-23T09:20:36.118Z,2268
2017-11-23T09:21:37.732Z,3540
2017-11-23T09:22:39.353Z,4204
2017-11-23T09:23:40.964Z,2796
2017-11-23T09:24:42.578Z,1680
2017-11-23T09:25:44.199Z,1640
2017-11-23T09:26:45.819Z,1188
2017-11-23T09:27:47.432Z,1008
2017-11-23T09:28:49.044Z,1136
2017-11-23T09:29:50.654Z,1404
2017-11-23T09:30:52.272Z,1408
2017-11-23T09:31:53.897Z,1240
2017-11-23T09:32:55.497Z,1284
2017-11-23T09:33:57.114Z,1320
2017-11-23T09:34:58.731Z,1296
2017-11-23T09:36:00.341Z,1536
2017-11-23T09:37:01.958Z,1408
2017-11-23T09:38:03.568Z,1328
2017-11-23T09:39:05.183Z,1392
2017-11-23T09:40:06.803Z,1420
2017-11-23T09:41:08.427Z,1456
2017-11-23T09:42:10.031Z,1404
2017-11-23T09:43:11.651Z,1808
2017-11-23T09:44:13.269Z,1556
2017-11-23T09:45:14.882Z,1520
2017-11-23T09:46:16.497Z,1580
2017-11-23T09:47:18.108Z,1728
2017-11-23T09:48:19.721Z,1824
2017-11-23T09:49:21.339Z,2672
2017-11-23T09:50:22.949Z,2464
2017-11-23T09:51:24.574Z,2488
2017-11-23T09:52:27.556Z,2008
2017-11-23T09:53:29.138Z,1668
2017-11-23T09:54:30.752Z,1572
2017-11-23T09:55:32.364Z,2180
2017-11-23T09:56:33.984Z,1924
2017-11-23T09:57:35.596Z,1692
2017-11-23T09:58:37.212Z,1960
2017-11-23T09:59:38.823Z,2456
2017-11-23T10:00:40.440Z,3036
2017-11-23T10:01:42.052Z,3708
2017-11-23T10:02:43.662Z,3384
2017-11-23T10:03:45.277Z,2364
2017-11-23T10:04:46.891Z,2000
2017-11-23T10:05:48.501Z,2132
2017-11-23T10:06:50.112Z,2412
2017-11-23T10:07:51.729Z,2172
2017-11-23T10:08:53.338Z,3292
2017-11-23T10:09:54.951Z,3448
2017-11-23T10:10:56.571Z,3156
2017-11-23T10:11:58.188Z,2900
2017-11-23T10:12:59.795Z,2400
2017-11-23T10:14:01.406Z,2432
2017-11-23T10:15:03.022Z,2076
2017-11-23T10:16:04.639Z,1652
2017-11-23T10:17:06.250Z,1360
2017-11-23T10:18:07.871Z,2040
2017-11-23T10:19:09.489Z,2172
2017-11-23T10:20:11.103Z,2088
2017-11-23T10:21:12.720Z,1844
2017-11-23T10:22:14.334Z,1404
2017-11-23T10:23:15.942Z,1256
2017-11-23T10:24:17.555Z,1556
2017-11-23T10:25:19.176Z,2420
2017-11-23T10:26:20.796Z,3396
2017-11-23T10:27:22.403Z,3992
2017-11-23T10:28:24.013Z,3336
2017-11-23T10:29:25.629Z,2520
2017-11-23T10:30:27.244Z,2224
2017-11-23T10:31:28.857Z,1948
2017-11-23T10:32:30.474Z,1760
2017-11-23T10:33:32.085Z,1524
2017-11-23T10:34:33.695Z,1348
2017-11-23T10:35:35.307Z,1288
2017-11-23T10:36:36.922Z,1176
2017-11-23T10:37:38.534Z,1148
2017-11-23T10:38:40.146Z,1224
2017-11-23T10:39:41.763Z,1188
2017-11-23T10:40:43.381Z,1312
2017-11-23T10:41:44.989Z,1340
2017-11-23T10:42:46.597Z,1288
2017-11-23T10:43:48.214Z,1664
2017-11-23T10:44:49.830Z,1876
2017-11-23T10:45:51.442Z,1984
2017-11-23T10:46:53.060Z,1892
2017-11-23T10:47:54.677Z,2168
2017-11-23T10:48:56.286Z,2216
2017-11-23T10:49:57.904Z,2176
2017-11-23T10:50:59.523Z,2184
2017-11-23T10:52:01.138Z,2260
2017-11-23T10:53:02.746Z,2040
2017-11-23T10:54:04.359Z,2212
2017-11-23T10:55:05.980Z,2356
2017-11-23T10:56:07.590Z,2512
2017-11-23T10:57:09.211Z,2860
2017-11-23T10:58:10.817Z,2796
2017-11-23T10:59:12.438Z,2892
2017-11-23T11:00:14.049Z,3256
2017-11-23T11:01:15.669Z,3320
2017-11-23T11:02:17.281Z,4016
2017-11-23T11:03:18.896Z,4048
2017-11-23T11:04:20.507Z,3428
2017-11-23T11:05:22.118Z,3108
2017-11-23T11:06:23.730Z,3008
2017-11-23T11:07:25.348Z,3004
2017-11-23T11:08:26.960Z,2912
2017-11-23T11:09:28.580Z,2900
2017-11-23T11:10:30.190Z,3068
2017-11-23T11:11:31.800Z,2440
2017-11-23T11:12:33.411Z,2116
2017-11-23T11:13:35.027Z,1896
2017-11-23T11:14:36.641Z,1700
2017-11-23T11:15:38.257Z,1712
2017-11-23T11:16:39.874Z,1636
2017-11-23T11:17:41.484Z,1408
2017-11-23T11:18:43.099Z,1244
2017-11-23T11:19:44.709Z,1240
2017-11-23T11:20:46.325Z,1352
2017-11-23T11:21:47.942Z,1620
2017-11-23T11:22:49.560Z,1520
2017-11-23T11:23:51.172Z,1368
2017-11-23T11:24:52.788Z,1436
2017-11-23T11:25:54.398Z,1356
2017-11-23T11:26:56.013Z,1512
2017-11-23T11:27:57.631Z,1888
2017-11-23T11:28:59.249Z,2364
2017-11-23T11:30:00.867Z,1604
2017-11-23T11:31:02.477Z,2088
2017-11-23T11:32:04.092Z,2628
2017-11-23T11:33:05.705Z,2832
2017-11-23T11:34:07.319Z,2908
2017-11-23T11:35:08.930Z,2956
2017-11-23T11:36:10.544Z,2472
2017-11-23T11:37:12.157Z,2120
2017-11-23T11:38:13.776Z,2016
2017-11-23T11:39:15.392Z,2088
2017-11-23T11:40:17.014Z,2636
2017-11-23T11:41:18.615Z,3072
2017-11-23T11:42:20.229Z,2776
2017-11-23T11:43:21.842Z,2336
2017-11-23T11:44:23.460Z,2288
2017-11-23T11:45:25.071Z,2836
2017-11-23T11:46:26.683Z,2472
2017-11-23T11:47:28.297Z,3312
2017-11-23T11:48:29.907Z,2888
2017-11-23T11:49:31.544Z,1936
2017-11-23T11:50:33.138Z,1872
2017-11-23T11:51:34.760Z,1920
2017-11-23T11:52:36.372Z,2016
2017-11-23T11:53:37.988Z,1656
2017-11-23T11:54:39.597Z,1288
2017-11-23T11:55:41.216Z,1596
2017-11-23T11:56:42.826Z,1804
2017-11-23T11:57:44.442Z,1416
2017-11-23T11:58:46.052Z,1316
2017-11-23T11:59:47.669Z,1152
2017-11-23T12:00:49.280Z,1676
2017-11-23T12:01:50.903Z,2632
2017-11-23T12:02:52.514Z,1868
2017-11-23T12:03:54.123Z,1840
2017-11-23T12:04:55.737Z,2484
2017-11-23T12:05:57.352Z,3128
2017-11-23T12:06:58.975Z,2356
2017-11-23T12:08:00.581Z,2480
2017-11-23T12:09:02.192Z,2352
2017-11-23T12:10:03.814Z,2588
2017-11-23T12:11:05.429Z,2448
2017-11-23T12:12:07.042Z,2764
2017-11-23T12:13:08.655Z,4268
2017-11-23T12:14:10.277Z,2684
2017-11-23T12:15:11.890Z,2328
2017-11-23T12:16:13.504Z,5156
2017-11-23T12:17:15.114Z,6780
2017-11-23T12:18:16.733Z,5376
2017-11-23T12:19:18.345Z,3452
2017-11-23T12:20:19.964Z,2332
2017-11-23T12:21:21.583Z,1340
2017-11-23T12:22:23.190Z,1304
2017-11-23T12:23:24.801Z,896
2017-11-23T12:24:26.415Z,764
2017-11-23T12:25:28.028Z,1064
2017-11-23T12:26:29.636Z,932
2017-11-23T12:27:31.246Z,780
2017-11-23T12:28:32.864Z,816
2017-11-23T12:29:34.476Z,672
2017-11-23T12:30:36.086Z,796
2017-11-23T12:31:37.696Z,684
2017-11-23T12:32:39.316Z,1108
2017-11-23T12:33:40.933Z,1496
2017-11-23T12:34:42.552Z,1968
2017-11-23T12:35:44.160Z,1928
2017-11-23T12:36:45.776Z,3144
2017-11-23T12:37:47.385Z,2280
2017-11-23T12:38:49.001Z,2156
2017-11-23T12:39:50.613Z,1408
2017-11-23T12:40:52.230Z,1072
2017-11-23T12:41:53.847Z,1416
2017-11-23T12:42:55.463Z,1596
2017-11-23T12:43:57.078Z,1924
2017-11-23T12:44:58.688Z,2044
2017-11-23T12:46:00.312Z,1736
2017-11-23T12:47:01.918Z,2364
2017-11-23T12:48:03.537Z,8628
2017-11-23T12:49:05.150Z,6036
2017-11-23T12:50:06.769Z,4676
2017-11-23T12:51:08.378Z,4136
2017-11-23T12:52:09.988Z,4728
2017-11-23T12:53:11.610Z,4612
2017-11-23T12:54:13.224Z,3964
2017-11-23T12:55:14.836Z,3840
2017-11-23T12:56:16.449Z,5088
2017-11-23T12:57:18.068Z,5376
2017-11-23T12:58:19.679Z,4356
2017-11-23T12:59:21.292Z,4016
2017-11-23T13:00:22.904Z,3444
2017-11-23T13:01:24.522Z,3968
2017-11-23T13:02:26.137Z,4396
2017-11-23T13:03:27.753Z,4848
2017-11-23T13:04:29.365Z,4764
2017-11-23T13:05:30.983Z,5140
2017-11-23T13:06:32.594Z,5028
2017-11-23T13:07:34.214Z,3868
2017-11-23T13:08:35.827Z,3444
2017-11-23T13:09:37.446Z,2780
2017-11-23T13:10:39.066Z,2200
2017-11-23T13:11:40.676Z,2224
2017-11-23T13:12:42.288Z,2704
2017-11-23T13:13:43.904Z,3600
2017-11-23T13:14:45.519Z,4244
2017-11-23T13:15:47.130Z,5252
2017-11-23T13:16:48.750Z,5164
2017-11-23T13:17:50.362Z,4168
2017-11-23T13:18:51.975Z,3292
2017-11-23T13:19:53.592Z,3100
2017-11-23T13:20:55.208Z,2216
2017-11-23T13:21:56.819Z,2004
2017-11-23T13:22:58.433Z,1776
2017-11-23T13:24:19.662Z,1568
2017-11-23T13:25:21.283Z,1680
2017-11-23T13:26:22.895Z,1556
2017-11-23T13:27:24.514Z,2228
2017-11-23T13:28:26.124Z,3004
2017-11-23T13:29:27.743Z,3128
2017-11-23T13:30:29.355Z,3580
2017-11-23T13:31:30.974Z,5204
2017-11-23T13:32:32.587Z,3836
2017-11-23T13:33:34.200Z,2928
2017-11-23T13:34:35.820Z,2092
2017-11-23T13:35:37.437Z,1348
2017-11-23T13:36:39.044Z,788
2017-11-23T13:37:40.657Z,696
2017-11-23T13:38:42.272Z,760
2017-11-23T13:39:43.889Z,976
2017-11-23T13:40:45.498Z,800
2017-11-23T13:41:47.112Z,768
2017-11-23T13:42:48.719Z,892
2017-11-23T13:43:50.334Z,720
2017-11-23T13:44:51.945Z,728
2017-11-23T13:45:53.561Z,872
2017-11-23T13:46:55.171Z,744
2017-11-23T13:47:56.789Z,656
2017-11-23T13:48:58.402Z,532
2017-11-23T13:50:00.021Z,692
2017-11-23T13:51:01.629Z,548
2017-11-23T13:52:03.236Z,548
2017-11-23T13:53:04.849Z,1260
2017-11-23T13:54:06.465Z,2308
2017-11-23T13:55:08.080Z,3592
2017-11-23T13:56:09.690Z,3096
2017-11-23T13:57:11.308Z,2288
2017-11-23T13:58:12.919Z,2048
2017-11-23T13:59:14.540Z,3300
2017-11-23T14:00:16.150Z,3440
2017-11-23T14:01:17.769Z,3272
2017-11-23T14:02:19.383Z,3668
2017-11-23T14:03:21.003Z,3344
2017-11-23T14:04:22.610Z,3176
2017-11-23T14:05:24.228Z,3716
2017-11-23T14:06:25.849Z,3420
2017-11-23T14:07:27.457Z,3720
2017-11-23T14:08:29.078Z,3620
2017-11-23T14:09:30.697Z,3276
2017-11-23T14:10:32.314Z,3144
2017-11-23T14:11:33.942Z,1680
2017-11-23T14:12:35.547Z,1560
2017-11-23T14:13:37.160Z,1544
2017-11-23T14:14:38.775Z,1556
2017-11-23T14:15:40.397Z,2000
2017-11-23T14:16:42.015Z,2300
2017-11-23T14:17:43.622Z,2236
2017-11-23T14:18:45.234Z,1652
2017-11-23T14:19:46.853Z,1344
2017-11-23T14:20:48.478Z,1236
2017-11-23T14:21:50.087Z,1192
2017-11-23T14:22:51.729Z,1176
2017-11-23T14:23:53.321Z,1152
2017-11-23T14:24:54.937Z,1132